sensor_id;sensor_type;location;lat;lon;timestamp;P1;durP1;ratioP1;P2;durP2;ratioP2
1054;SDS011;516;51.482;7.120;2023-06-10T00:08:23;21.20;;;19.97;;
1054;SDS011;516;51.482;7.120;2023-06-10T00:14:11;21.90;;;20.60;;
1054;SDS011;516;51.482;7.120;2023-06-10T00:19:59;21.90;;;20.57;;
1054;SDS011;516;51.482;7.120;2023-06-10T00:25:47;21.30;;;19.90;;
1054;SDS011;516;51.482;7.120;2023-06-10T00:31:36;22.70;;;20.57;;
1054;SDS011;516;51.482;7.120;2023-06-10T00:37:24;21.93;;;20.37;;
1054;SDS011;516;51.482;7.120;2023-06-10T00:43:12;21.50;;;20.10;;
1054;SDS011;516;51.482;7.120;2023-06-10T00:49:00;20.70;;;19.10;;
1054;SDS011;516;51.482;7.120;2023-06-10T00:54:48;20.27;;;18.97;;
1054;SDS011;516;51.482;7.120;2023-06-10T01:00:36;22.23;;;20.33;;
1054;SDS011;516;51.482;7.120;2023-06-10T01:06:34;20.90;;;19.60;;
1054;SDS011;516;51.482;7.120;2023-06-10T01:18:46;20.70;;;19.40;;
1054;SDS011;516;51.482;7.120;2023-06-10T01:24:34;20.90;;;19.50;;
1054;SDS011;516;51.482;7.120;2023-06-10T01:30:24;22.10;;;20.47;;
1054;SDS011;516;51.482;7.120;2023-06-10T01:36:17;21.67;;;20.17;;
1054;SDS011;516;51.482;7.120;2023-06-10T01:42:06;20.93;;;19.53;;
1054;SDS011;516;51.482;7.120;2023-06-10T01:47:54;21.63;;;19.90;;
1054;SDS011;516;51.482;7.120;2023-06-10T01:53:42;21.80;;;20.27;;
1054;SDS011;516;51.482;7.120;2023-06-10T01:59:30;21.67;;;20.00;;
1054;SDS011;516;51.482;7.120;2023-06-10T02:08:40;20.50;;;19.10;;
1054;SDS011;516;51.482;7.120;2023-06-10T02:14:28;21.80;;;20.33;;
1054;SDS011;516;51.482;7.120;2023-06-10T02:20:16;21.50;;;20.10;;
1054;SDS011;516;51.482;7.120;2023-06-10T02:26:04;21.67;;;20.20;;
1054;SDS011;516;51.482;7.120;2023-06-10T02:31:52;21.30;;;19.70;;
1054;SDS011;516;51.482;7.120;2023-06-10T02:37:40;23.63;;;21.87;;
1054;SDS011;516;51.482;7.120;2023-06-10T02:43:28;20.97;;;19.47;;
1054;SDS011;516;51.482;7.120;2023-06-10T02:49:16;23.33;;;21.40;;
1054;SDS011;516;51.482;7.120;2023-06-10T02:55:04;23.23;;;21.27;;
1054;SDS011;516;51.482;7.120;2023-06-10T03:00:52;24.47;;;22.37;;
1054;SDS011;516;51.482;7.120;2023-06-10T03:06:38;24.33;;;22.03;;
1054;SDS011;516;51.482;7.120;2023-06-10T03:12:27;23.80;;;21.90;;
1054;SDS011;516;51.482;7.120;2023-06-10T03:18:15;22.90;;;21.00;;
1054;SDS011;516;51.482;7.120;2023-06-10T03:24:03;23.83;;;21.83;;
1054;SDS011;516;51.482;7.120;2023-06-10T03:29:52;24.07;;;22.07;;
1054;SDS011;516;51.482;7.120;2023-06-10T03:35:40;23.07;;;21.30;;
1054;SDS011;516;51.482;7.120;2023-06-10T03:41:28;23.40;;;21.40;;
1054;SDS011;516;51.482;7.120;2023-06-10T03:47:16;25.33;;;23.33;;
1054;SDS011;516;51.482;7.120;2023-06-10T03:53:05;23.83;;;21.93;;
1054;SDS011;516;51.482;7.120;2023-06-10T03:58:52;24.10;;;22.13;;
1054;SDS011;516;51.482;7.120;2023-06-10T04:14:30;22.80;;;21.00;;
1054;SDS011;516;51.482;7.120;2023-06-10T04:20:18;22.33;;;20.60;;
1054;SDS011;516;51.482;7.120;2023-06-10T04:26:06;24.40;;;22.60;;
1054;SDS011;516;51.482;7.120;2023-06-10T04:31:55;22.70;;;20.90;;
1054;SDS011;516;51.482;7.120;2023-06-10T04:37:42;22.93;;;21.23;;
1054;SDS011;516;51.482;7.120;2023-06-10T04:43:30;21.83;;;19.97;;
1054;SDS011;516;51.482;7.120;2023-06-10T04:49:18;21.90;;;20.10;;
1054;SDS011;516;51.482;7.120;2023-06-10T04:55:06;19.80;;;18.40;;
1054;SDS011;516;51.482;7.120;2023-06-10T05:00:54;20.00;;;18.70;;
1054;SDS011;516;51.482;7.120;2023-06-10T05:06:35;20.17;;;18.87;;
1054;SDS011;516;51.482;7.120;2023-06-10T05:12:23;20.57;;;19.03;;
1054;SDS011;516;51.482;7.120;2023-06-10T05:18:11;20.70;;;19.00;;
1054;SDS011;516;51.482;7.120;2023-06-10T05:23:59;20.87;;;19.37;;
1054;SDS011;516;51.482;7.120;2023-06-10T05:29:47;21.43;;;20.03;;
1054;SDS011;516;51.482;7.120;2023-06-10T05:35:35;19.90;;;18.60;;
1054;SDS011;516;51.482;7.120;2023-06-10T05:41:23;20.73;;;19.23;;
1054;SDS011;516;51.482;7.120;2023-06-10T05:47:11;20.93;;;19.57;;
1054;SDS011;516;51.482;7.120;2023-06-10T05:52:58;20.60;;;19.40;;
1054;SDS011;516;51.482;7.120;2023-06-10T05:58:46;21.30;;;19.90;;
1054;SDS011;516;51.482;7.120;2023-06-10T06:14:30;21.57;;;20.20;;
1054;SDS011;516;51.482;7.120;2023-06-10T06:20:22;20.60;;;19.10;;
1054;SDS011;516;51.482;7.120;2023-06-10T06:26:10;21.27;;;19.60;;
1054;SDS011;516;51.482;7.120;2023-06-10T06:31:57;20.80;;;19.40;;
1054;SDS011;516;51.482;7.120;2023-06-10T06:37:45;19.83;;;18.70;;
1054;SDS011;516;51.482;7.120;2023-06-10T06:43:33;20.10;;;18.87;;
1054;SDS011;516;51.482;7.120;2023-06-10T06:49:21;21.17;;;19.47;;
1054;SDS011;516;51.482;7.120;2023-06-10T06:55:08;18.87;;;17.87;;
1054;SDS011;516;51.482;7.120;2023-06-10T07:00:56;22.00;;;20.60;;
1054;SDS011;516;51.482;7.120;2023-06-10T07:06:36;19.20;;;17.93;;
1054;SDS011;516;51.482;7.120;2023-06-10T07:12:25;19.40;;;18.30;;
1054;SDS011;516;51.482;7.120;2023-06-10T07:18:14;19.20;;;18.20;;
1054;SDS011;516;51.482;7.120;2023-06-10T07:24:03;20.60;;;19.30;;
1054;SDS011;516;51.482;7.120;2023-06-10T07:29:51;19.73;;;18.73;;
1054;SDS011;516;51.482;7.120;2023-06-10T07:35:39;19.20;;;18.20;;
1054;SDS011;516;51.482;7.120;2023-06-10T07:41:27;20.50;;;19.00;;
1054;SDS011;516;51.482;7.120;2023-06-10T07:47:14;18.97;;;18.00;;
1054;SDS011;516;51.482;7.120;2023-06-10T07:53:02;18.43;;;17.33;;
1054;SDS011;516;51.482;7.120;2023-06-10T07:58:50;18.90;;;17.93;;
1054;SDS011;516;51.482;7.120;2023-06-10T08:14:32;18.53;;;17.60;;
1054;SDS011;516;51.482;7.120;2023-06-10T08:20:20;19.33;;;18.10;;
1054;SDS011;516;51.482;7.120;2023-06-10T08:26:08;17.33;;;16.53;;
1054;SDS011;516;51.482;7.120;2023-06-10T08:31:56;19.67;;;18.27;;
1054;SDS011;516;51.482;7.120;2023-06-10T08:37:44;19.73;;;18.43;;
1054;SDS011;516;51.482;7.120;2023-06-10T08:49:22;17.73;;;16.83;;
1054;SDS011;516;51.482;7.120;2023-06-10T08:55:23;17.87;;;16.87;;
1054;SDS011;516;51.482;7.120;2023-06-10T09:01:36;17.83;;;16.87;;
1054;SDS011;516;51.482;7.120;2023-06-10T09:04:12;19.30;;;18.20;;
1054;SDS011;516;51.482;7.120;2023-06-10T09:06:38;18.70;;;17.60;;
1054;SDS011;516;51.482;7.120;2023-06-10T09:12:27;18.03;;;17.03;;
1054;SDS011;516;51.482;7.120;2023-06-10T09:18:15;18.53;;;17.53;;
1054;SDS011;516;51.482;7.120;2023-06-10T09:24:03;17.97;;;17.17;;
1054;SDS011;516;51.482;7.120;2023-06-10T09:29:53;17.97;;;17.07;;
1054;SDS011;516;51.482;7.120;2023-06-10T09:35:45;18.87;;;17.87;;
1054;SDS011;516;51.482;7.120;2023-06-10T09:41:34;18.43;;;16.90;;
1054;SDS011;516;51.482;7.120;2023-06-10T09:47:26;19.30;;;17.83;;
1054;SDS011;516;51.482;7.120;2023-06-10T09:53:14;18.30;;;17.30;;
1054;SDS011;516;51.482;7.120;2023-06-10T09:59:03;19.83;;;18.73;;
1054;SDS011;516;51.482;7.120;2023-06-10T10:14:31;19.10;;;18.20;;
1054;SDS011;516;51.482;7.120;2023-06-10T10:20:20;19.30;;;18.20;;
1054;SDS011;516;51.482;7.120;2023-06-10T10:26:13;19.40;;;18.30;;
1054;SDS011;516;51.482;7.120;2023-06-10T10:32:01;18.40;;;17.40;;
1054;SDS011;516;51.482;7.120;2023-06-10T10:37:54;20.70;;;19.40;;
1054;SDS011;516;51.482;7.120;2023-06-10T10:43:43;18.63;;;17.73;;
1054;SDS011;516;51.482;7.120;2023-06-10T10:49:31;18.43;;;17.37;;
1054;SDS011;516;51.482;7.120;2023-06-10T10:55:20;19.30;;;18.40;;
1054;SDS011;516;51.482;7.120;2023-06-10T11:01:12;18.10;;;17.30;;
1054;SDS011;516;51.482;7.120;2023-06-10T11:06:38;18.97;;;18.03;;
1054;SDS011;516;51.482;7.120;2023-06-10T11:12:07;19.57;;;18.57;;
1054;SDS011;516;51.482;7.120;2023-06-10T11:18:06;19.83;;;18.73;;
1054;SDS011;516;51.482;7.120;2023-06-10T11:24:31;20.30;;;19.00;;
1054;SDS011;516;51.482;7.120;2023-06-10T11:30:19;20.50;;;19.30;;
1054;SDS011;516;51.482;7.120;2023-06-10T11:36:08;19.10;;;18.20;;
1054;SDS011;516;51.482;7.120;2023-06-10T11:41:56;19.60;;;18.60;;
1054;SDS011;516;51.482;7.120;2023-06-10T11:47:57;20.50;;;19.40;;
1054;SDS011;516;51.482;7.120;2023-06-10T11:53:45;21.93;;;20.40;;
1054;SDS011;516;51.482;7.120;2023-06-10T11:59:36;20.60;;;19.53;;
1054;SDS011;516;51.482;7.120;2023-06-10T12:08:47;20.83;;;19.73;;
1054;SDS011;516;51.482;7.120;2023-06-10T12:20:45;20.13;;;19.07;;
1054;SDS011;516;51.482;7.120;2023-06-10T12:26:34;20.63;;;19.60;;
1054;SDS011;516;51.482;7.120;2023-06-10T12:32:34;20.40;;;19.20;;
1054;SDS011;516;51.482;7.120;2023-06-10T12:39:03;19.63;;;18.70;;
1054;SDS011;516;51.482;7.120;2023-06-10T12:44:54;19.83;;;18.70;;
1054;SDS011;516;51.482;7.120;2023-06-10T12:50:43;21.20;;;19.80;;
1054;SDS011;516;51.482;7.120;2023-06-10T12:56:31;19.80;;;18.57;;
1054;SDS011;516;51.482;7.120;2023-06-10T13:02:19;20.07;;;18.90;;
1054;SDS011;516;51.482;7.120;2023-06-10T13:08:08;20.57;;;19.47;;
1054;SDS011;516;51.482;7.120;2023-06-10T13:13:58;20.00;;;18.90;;
1054;SDS011;516;51.482;7.120;2023-06-10T13:19:46;19.90;;;18.80;;
1054;SDS011;516;51.482;7.120;2023-06-10T13:25:35;20.47;;;19.37;;
1054;SDS011;516;51.482;7.120;2023-06-10T13:31:23;19.57;;;18.67;;
1054;SDS011;516;51.482;7.120;2023-06-10T13:37:11;19.30;;;18.40;;
1054;SDS011;516;51.482;7.120;2023-06-10T13:42:59;18.93;;;18.00;;
1054;SDS011;516;51.482;7.120;2023-06-10T13:48:47;19.93;;;19.03;;
1054;SDS011;516;51.482;7.120;2023-06-10T13:54:35;20.63;;;19.50;;
1054;SDS011;516;51.482;7.120;2023-06-10T14:00:23;19.90;;;18.80;;
1054;SDS011;516;51.482;7.120;2023-06-10T14:09:33;19.40;;;18.40;;
1054;SDS011;516;51.482;7.120;2023-06-10T14:15:21;19.00;;;18.10;;
1054;SDS011;516;51.482;7.120;2023-06-10T14:21:09;19.40;;;18.50;;
1054;SDS011;516;51.482;7.120;2023-06-10T14:26:57;19.50;;;18.40;;
1054;SDS011;516;51.482;7.120;2023-06-10T14:32:45;19.77;;;18.20;;
1054;SDS011;516;51.482;7.120;2023-06-10T14:38:33;18.10;;;17.10;;
1054;SDS011;516;51.482;7.120;2023-06-10T14:44:20;19.10;;;18.20;;
1054;SDS011;516;51.482;7.120;2023-06-10T14:50:08;19.40;;;18.30;;
1054;SDS011;516;51.482;7.120;2023-06-10T14:55:56;19.60;;;18.60;;
1054;SDS011;516;51.482;7.120;2023-06-10T15:01:44;19.97;;;18.80;;
1054;SDS011;516;51.482;7.120;2023-06-10T15:07:22;19.23;;;18.33;;
1054;SDS011;516;51.482;7.120;2023-06-10T15:13:10;20.70;;;19.53;;
1054;SDS011;516;51.482;7.120;2023-06-10T15:18:58;20.50;;;19.40;;
1054;SDS011;516;51.482;7.120;2023-06-10T15:24:45;21.10;;;19.90;;
1054;SDS011;516;51.482;7.120;2023-06-10T15:30:33;19.47;;;18.47;;
1054;SDS011;516;51.482;7.120;2023-06-10T15:36:21;19.60;;;18.50;;
1054;SDS011;516;51.482;7.120;2023-06-10T15:42:09;19.00;;;17.97;;
1054;SDS011;516;51.482;7.120;2023-06-10T15:47:57;19.97;;;18.90;;
1054;SDS011;516;51.482;7.120;2023-06-10T15:53:45;20.00;;;19.10;;
1054;SDS011;516;51.482;7.120;2023-06-10T15:59:34;19.60;;;18.50;;
1054;SDS011;516;51.482;7.120;2023-06-10T16:15:16;19.70;;;18.50;;
1054;SDS011;516;51.482;7.120;2023-06-10T16:21:03;19.93;;;18.77;;
1054;SDS011;516;51.482;7.120;2023-06-10T16:26:52;20.80;;;19.50;;
1054;SDS011;516;51.482;7.120;2023-06-10T16:32:40;22.40;;;21.30;;
1054;SDS011;516;51.482;7.120;2023-06-10T16:38:28;19.50;;;18.50;;
1054;SDS011;516;51.482;7.120;2023-06-10T16:44:15;20.80;;;19.80;;
1054;SDS011;516;51.482;7.120;2023-06-10T16:50:03;20.60;;;19.47;;
1054;SDS011;516;51.482;7.120;2023-06-10T16:55:52;19.23;;;18.30;;
1054;SDS011;516;51.482;7.120;2023-06-10T17:01:39;22.40;;;21.10;;
1054;SDS011;516;51.482;7.120;2023-06-10T17:10:46;21.13;;;20.03;;
1054;SDS011;516;51.482;7.120;2023-06-10T17:16:33;20.83;;;19.63;;
1054;SDS011;516;51.482;7.120;2023-06-10T17:22:21;20.87;;;19.87;;
1054;SDS011;516;51.482;7.120;2023-06-10T17:28:09;20.73;;;19.43;;
1054;SDS011;516;51.482;7.120;2023-06-10T17:33:57;21.80;;;20.20;;
1054;SDS011;516;51.482;7.120;2023-06-10T17:39:45;22.10;;;20.80;;
1054;SDS011;516;51.482;7.120;2023-06-10T17:45:33;20.20;;;19.17;;
1054;SDS011;516;51.482;7.120;2023-06-10T17:51:20;20.33;;;19.23;;
1054;SDS011;516;51.482;7.120;2023-06-10T17:57:09;20.40;;;19.30;;
1054;SDS011;516;51.482;7.120;2023-06-10T18:02:56;20.90;;;19.70;;
1054;SDS011;516;51.482;7.120;2023-06-10T18:08:55;21.57;;;20.47;;
1054;SDS011;516;51.482;7.120;2023-06-10T18:14:43;21.13;;;20.00;;
1054;SDS011;516;51.482;7.120;2023-06-10T18:20:31;21.20;;;20.10;;
1054;SDS011;516;51.482;7.120;2023-06-10T18:26:18;22.07;;;20.87;;
1054;SDS011;516;51.482;7.120;2023-06-10T18:32:05;21.97;;;20.60;;
1054;SDS011;516;51.482;7.120;2023-06-10T18:37:53;22.77;;;21.57;;
1054;SDS011;516;51.482;7.120;2023-06-10T18:43:40;23.27;;;21.90;;
1054;SDS011;516;51.482;7.120;2023-06-10T18:49:28;22.50;;;21.40;;
1054;SDS011;516;51.482;7.120;2023-06-10T18:55:16;24.10;;;22.80;;
1054;SDS011;516;51.482;7.120;2023-06-10T19:01:03;22.20;;;20.63;;
1054;SDS011;516;51.482;7.120;2023-06-10T19:16:30;22.17;;;20.97;;
1054;SDS011;516;51.482;7.120;2023-06-10T19:22:17;21.87;;;20.57;;
1054;SDS011;516;51.482;7.120;2023-06-10T19:28:06;23.00;;;21.60;;
1054;SDS011;516;51.482;7.120;2023-06-10T19:33:55;22.73;;;21.43;;
1054;SDS011;516;51.482;7.120;2023-06-10T19:39:43;22.60;;;21.13;;
1054;SDS011;516;51.482;7.120;2023-06-10T19:45:31;21.93;;;20.60;;
1054;SDS011;516;51.482;7.120;2023-06-10T19:51:18;22.33;;;20.83;;
1054;SDS011;516;51.482;7.120;2023-06-10T19:57:07;22.57;;;21.33;;
1054;SDS011;516;51.482;7.120;2023-06-10T20:02:54;22.33;;;21.20;;
1054;SDS011;516;51.482;7.120;2023-06-10T20:08:38;23.33;;;22.03;;
1054;SDS011;516;51.482;7.120;2023-06-10T20:14:27;22.80;;;21.40;;
1054;SDS011;516;51.482;7.120;2023-06-10T20:20:15;24.27;;;22.43;;
1054;SDS011;516;51.482;7.120;2023-06-10T20:26:02;25.23;;;23.70;;
1054;SDS011;516;51.482;7.120;2023-06-10T20:31:50;30.50;;;28.40;;
1054;SDS011;516;51.482;7.120;2023-06-10T20:37:38;28.97;;;27.07;;
1054;SDS011;516;51.482;7.120;2023-06-10T20:43:26;28.23;;;26.27;;
1054;SDS011;516;51.482;7.120;2023-06-10T20:49:14;32.63;;;30.63;;
1054;SDS011;516;51.482;7.120;2023-06-10T20:55:02;24.77;;;23.47;;
1054;SDS011;516;51.482;7.120;2023-06-10T21:00:50;23.63;;;22.00;;
1054;SDS011;516;51.482;7.120;2023-06-10T21:16:28;23.17;;;21.87;;
1054;SDS011;516;51.482;7.120;2023-06-10T21:22:17;24.20;;;22.63;;
1054;SDS011;516;51.482;7.120;2023-06-10T21:28:05;23.23;;;21.93;;
1054;SDS011;516;51.482;7.120;2023-06-10T21:33:53;24.10;;;22.70;;
1054;SDS011;516;51.482;7.120;2023-06-10T21:39:42;22.63;;;21.23;;
1054;SDS011;516;51.482;7.120;2023-06-10T21:45:29;22.87;;;21.40;;
1054;SDS011;516;51.482;7.120;2023-06-10T21:51:17;23.30;;;21.80;;
1054;SDS011;516;51.482;7.120;2023-06-10T21:57:05;23.10;;;21.60;;
1054;SDS011;516;51.482;7.120;2023-06-10T22:02:53;22.83;;;21.57;;
1054;SDS011;516;51.482;7.120;2023-06-10T22:08:38;23.50;;;21.77;;
1054;SDS011;516;51.482;7.120;2023-06-10T22:14:25;24.60;;;22.77;;
1054;SDS011;516;51.482;7.120;2023-06-10T22:20:13;23.77;;;22.20;;
1054;SDS011;516;51.482;7.120;2023-06-10T22:26:01;22.30;;;21.10;;
1054;SDS011;516;51.482;7.120;2023-06-10T22:31:49;24.50;;;23.03;;
1054;SDS011;516;51.482;7.120;2023-06-10T22:37:37;23.33;;;21.83;;
1054;SDS011;516;51.482;7.120;2023-06-10T22:43:25;23.97;;;22.57;;
1054;SDS011;516;51.482;7.120;2023-06-10T22:49:13;23.17;;;21.87;;
1054;SDS011;516;51.482;7.120;2023-06-10T22:55:01;22.57;;;21.27;;
1054;SDS011;516;51.482;7.120;2023-06-10T23:00:49;21.67;;;20.40;;
1054;SDS011;516;51.482;7.120;2023-06-10T23:16:31;24.30;;;22.70;;
1054;SDS011;516;51.482;7.120;2023-06-10T23:22:18;24.23;;;22.73;;
1054;SDS011;516;51.482;7.120;2023-06-10T23:28:06;23.37;;;21.90;;
1054;SDS011;516;51.482;7.120;2023-06-10T23:33:53;24.30;;;22.80;;
1054;SDS011;516;51.482;7.120;2023-06-10T23:39:42;23.20;;;21.70;;
1054;SDS011;516;51.482;7.120;2023-06-10T23:45:31;23.03;;;21.73;;
1054;SDS011;516;51.482;7.120;2023-06-10T23:51:20;23.93;;;22.43;;
1054;SDS011;516;51.482;7.120;2023-06-10T23:57:08;22.63;;;21.03;;
